sensor_id;sensor_type;location;lat;lon;timestamp;P1;durP1;ratioP1;P2;durP2;ratioP2
27269;SDS011;14769;56.934;24.176;2023-02-18T00:00:44;14.85;;;9.50;;
27269;SDS011;14769;56.934;24.176;2023-02-18T00:01:46;16.38;;;10.13;;
27269;SDS011;14769;56.934;24.176;2023-02-18T00:02:48;19.23;;;11.70;;
27269;SDS011;14769;56.934;24.176;2023-02-18T00:03:52;20.15;;;10.63;;
27269;SDS011;14769;56.934;24.176;2023-02-18T00:04:54;17.30;;;11.15;;
27269;SDS011;14769;56.934;24.176;2023-02-18T00:05:56;20.02;;;11.70;;
27269;SDS011;14769;56.934;24.176;2023-02-18T00:06:58;18.75;;;11.80;;
27269;SDS011;14769;56.934;24.176;2023-02-18T00:08:00;17.40;;;11.23;;
27269;SDS011;14769;56.934;24.176;2023-02-18T00:09:02;19.52;;;11.85;;
27269;SDS011;14769;56.934;24.176;2023-02-18T00:10:06;18.13;;;11.18;;
27269;SDS011;14769;56.934;24.176;2023-02-18T00:11:11;18.83;;;12.25;;
27269;SDS011;14769;56.934;24.176;2023-02-18T00:12:14;17.00;;;12.15;;
27269;SDS011;14769;56.934;24.176;2023-02-18T00:13:16;20.95;;;12.27;;
27269;SDS011;14769;56.934;24.176;2023-02-18T00:14:18;18.52;;;11.75;;
27269;SDS011;14769;56.934;24.176;2023-02-18T00:15:20;17.13;;;12.38;;
27269;SDS011;14769;56.934;24.176;2023-02-18T00:16:22;17.35;;;11.73;;
27269;SDS011;14769;56.934;24.176;2023-02-18T00:17:24;19.13;;;11.32;;
27269;SDS011;14769;56.934;24.176;2023-02-18T00:18:28;17.45;;;11.25;;
27269;SDS011;14769;56.934;24.176;2023-02-18T00:19:30;23.38;;;12.43;;
27269;SDS011;14769;56.934;24.176;2023-02-18T00:20:32;17.20;;;11.27;;
27269;SDS011;14769;56.934;24.176;2023-02-18T00:21:36;16.83;;;11.43;;
27269;SDS011;14769;56.934;24.176;2023-02-18T00:22:38;18.20;;;11.45;;
27269;SDS011;14769;56.934;24.176;2023-02-18T00:23:40;20.35;;;11.65;;
27269;SDS011;14769;56.934;24.176;2023-02-18T00:24:44;17.80;;;11.70;;
27269;SDS011;14769;56.934;24.176;2023-02-18T12:06:23;1.75;;;1.05;;
27269;SDS011;14769;56.934;24.176;2023-02-18T12:07:30;1.52;;;1.13;;
27269;SDS011;14769;56.934;24.176;2023-02-18T12:08:47;1.58;;;0.73;;
27269;SDS011;14769;56.934;24.176;2023-02-18T12:09:59;1.80;;;0.90;;
27269;SDS011;14769;56.934;24.176;2023-02-18T12:11:06;3.38;;;0.90;;
27269;SDS011;14769;56.934;24.176;2023-02-18T12:12:16;2.42;;;0.93;;
27269;SDS011;14769;56.934;24.176;2023-02-18T12:13:31;1.98;;;1.20;;
27269;SDS011;14769;56.934;24.176;2023-02-18T12:14:37;3.30;;;1.27;;
27269;SDS011;14769;56.934;24.176;2023-02-18T12:17:29;3.88;;;1.30;;
27269;SDS011;14769;56.934;24.176;2023-02-18T12:31:19;3.47;;;1.58;;
27269;SDS011;14769;56.934;24.176;2023-02-18T12:32:46;1.30;;;0.98;;
27269;SDS011;14769;56.934;24.176;2023-02-18T12:46:48;3.88;;;1.98;;
27269;SDS011;14769;56.934;24.176;2023-02-18T12:47:49;2.40;;;1.27;;
27269;SDS011;14769;56.934;24.176;2023-02-18T12:50:56;2.25;;;0.82;;
27269;SDS011;14769;56.934;24.176;2023-02-18T12:59:18;3.38;;;1.40;;
27269;SDS011;14769;56.934;24.176;2023-02-18T13:09:54;2.72;;;1.13;;
27269;SDS011;14769;56.934;24.176;2023-02-18T13:11:11;5.05;;;1.35;;
27269;SDS011;14769;56.934;24.176;2023-02-18T13:16:23;1.67;;;1.10;;
27269;SDS011;14769;56.934;24.176;2023-02-18T13:17:28;2.50;;;1.75;;
27269;SDS011;14769;56.934;24.176;2023-02-18T13:18:36;1.75;;;1.25;;
27269;SDS011;14769;56.934;24.176;2023-02-18T13:19:54;3.42;;;1.48;;
27269;SDS011;14769;56.934;24.176;2023-02-18T13:21:00;3.70;;;1.67;;
27269;SDS011;14769;56.934;24.176;2023-02-18T13:22:06;4.13;;;1.75;;
27269;SDS011;14769;56.934;24.176;2023-02-18T13:23:22;2.33;;;1.30;;
27269;SDS011;14769;56.934;24.176;2023-02-18T13:24:35;2.47;;;1.23;;
27269;SDS011;14769;56.934;24.176;2023-02-18T13:25:38;1.65;;;1.08;;
27269;SDS011;14769;56.934;24.176;2023-02-18T13:26:40;3.65;;;1.55;;
27269;SDS011;14769;56.934;24.176;2023-02-18T13:29:27;3.10;;;1.50;;
27269;SDS011;14769;56.934;24.176;2023-02-18T13:34:11;4.80;;;1.50;;
27269;SDS011;14769;56.934;24.176;2023-02-18T13:35:45;4.00;;;1.35;;
27269;SDS011;14769;56.934;24.176;2023-02-18T13:39:48;3.72;;;1.40;;
27269;SDS011;14769;56.934;24.176;2023-02-18T13:40:53;1.67;;;1.23;;
27269;SDS011;14769;56.934;24.176;2023-02-18T13:43:36;5.07;;;1.67;;
27269;SDS011;14769;56.934;24.176;2023-02-18T13:46:04;2.55;;;1.42;;
27269;SDS011;14769;56.934;24.176;2023-02-18T14:08:14;0.88;;;0.50;;
27269;SDS011;14769;56.934;24.176;2023-02-18T14:09:34;1.70;;;0.50;;
27269;SDS011;14769;56.934;24.176;2023-02-18T14:10:38;2.35;;;1.00;;
27269;SDS011;14769;56.934;24.176;2023-02-18T14:11:45;1.05;;;0.90;;
27269;SDS011;14769;56.934;24.176;2023-02-18T14:15:00;1.35;;;0.80;;
27269;SDS011;14769;56.934;24.176;2023-02-18T14:16:02;1.05;;;0.70;;
27269;SDS011;14769;56.934;24.176;2023-02-18T14:18:27;5.07;;;0.70;;
27269;SDS011;14769;56.934;24.176;2023-02-18T14:19:40;1.58;;;0.40;;
27269;SDS011;14769;56.934;24.176;2023-02-18T14:20:43;0.95;;;0.38;;
27269;SDS011;14769;56.934;24.176;2023-02-18T14:21:51;2.85;;;1.00;;
27269;SDS011;14769;56.934;24.176;2023-02-18T14:24:43;1.02;;;0.60;;
27269;SDS011;14769;56.934;24.176;2023-02-18T14:25:53;2.33;;;0.75;;
27269;SDS011;14769;56.934;24.176;2023-02-18T14:27:04;1.83;;;0.70;;
27269;SDS011;14769;56.934;24.176;2023-02-18T14:29:34;0.73;;;0.60;;
27269;SDS011;14769;56.934;24.176;2023-02-18T14:30:40;2.08;;;0.90;;
27269;SDS011;14769;56.934;24.176;2023-02-18T14:32:55;2.25;;;1.08;;
27269;SDS011;14769;56.934;24.176;2023-02-18T14:36:38;2.45;;;0.90;;
27269;SDS011;14769;56.934;24.176;2023-02-18T14:44:28;4.00;;;1.60;;
27269;SDS011;14769;56.934;24.176;2023-02-18T14:48:56;2.20;;;1.50;;
27269;SDS011;14769;56.934;24.176;2023-02-18T14:50:13;3.00;;;0.80;;
27269;SDS011;14769;56.934;24.176;2023-02-18T14:51:21;3.65;;;1.50;;
27269;SDS011;14769;56.934;24.176;2023-02-18T14:53:39;2.15;;;0.98;;
27269;SDS011;14769;56.934;24.176;2023-02-18T14:54:43;1.95;;;1.15;;
27269;SDS011;14769;56.934;24.176;2023-02-18T14:55:50;3.20;;;1.58;;
27269;SDS011;14769;56.934;24.176;2023-02-18T14:56:59;4.63;;;1.60;;
27269;SDS011;14769;56.934;24.176;2023-02-18T14:58:06;3.92;;;1.55;;
27269;SDS011;14769;56.934;24.176;2023-02-18T14:59:15;6.78;;;2.05;;
27269;SDS011;14769;56.934;24.176;2023-02-18T15:00:22;4.75;;;2.05;;
27269;SDS011;14769;56.934;24.176;2023-02-18T15:01:27;3.03;;;1.70;;
27269;SDS011;14769;56.934;24.176;2023-02-18T15:02:34;4.60;;;1.70;;
27269;SDS011;14769;56.934;24.176;2023-02-18T15:03:39;4.93;;;2.00;;
27269;SDS011;14769;56.934;24.176;2023-02-18T15:04:41;4.45;;;1.80;;
27269;SDS011;14769;56.934;24.176;2023-02-18T15:05:46;4.20;;;2.03;;
27269;SDS011;14769;56.934;24.176;2023-02-18T15:06:56;4.10;;;1.85;;
27269;SDS011;14769;56.934;24.176;2023-02-18T15:09:14;5.60;;;1.60;;
27269;SDS011;14769;56.934;24.176;2023-02-18T15:10:21;4.55;;;1.60;;
27269;SDS011;14769;56.934;24.176;2023-02-18T15:11:34;3.03;;;1.10;;
27269;SDS011;14769;56.934;24.176;2023-02-18T15:12:39;5.93;;;1.73;;
27269;SDS011;14769;56.934;24.176;2023-02-18T15:13:42;3.10;;;1.50;;
27269;SDS011;14769;56.934;24.176;2023-02-18T15:14:46;3.67;;;1.60;;
27269;SDS011;14769;56.934;24.176;2023-02-18T15:15:52;3.53;;;1.20;;
27269;SDS011;14769;56.934;24.176;2023-02-18T15:16:57;1.73;;;1.10;;
27269;SDS011;14769;56.934;24.176;2023-02-18T15:18:01;4.00;;;1.10;;
27269;SDS011;14769;56.934;24.176;2023-02-18T15:19:05;3.17;;;1.20;;
27269;SDS011;14769;56.934;24.176;2023-02-18T15:20:13;2.92;;;1.23;;
27269;SDS011;14769;56.934;24.176;2023-02-18T15:22:26;4.70;;;1.02;;
27269;SDS011;14769;56.934;24.176;2023-02-18T15:23:34;3.08;;;0.98;;
27269;SDS011;14769;56.934;24.176;2023-02-18T15:24:40;4.97;;;1.08;;
27269;SDS011;14769;56.934;24.176;2023-02-18T15:25:46;6.50;;;1.30;;
27269;SDS011;14769;56.934;24.176;2023-02-18T15:26:52;2.28;;;1.17;;
27269;SDS011;14769;56.934;24.176;2023-02-18T15:27:56;2.65;;;1.02;;
27269;SDS011;14769;56.934;24.176;2023-02-18T15:28:59;4.10;;;1.40;;
27269;SDS011;14769;56.934;24.176;2023-02-18T15:31:28;4.45;;;1.33;;
27269;SDS011;14769;56.934;24.176;2023-02-18T15:32:31;3.17;;;1.33;;
27269;SDS011;14769;56.934;24.176;2023-02-18T15:33:33;5.57;;;1.88;;
27269;SDS011;14769;56.934;24.176;2023-02-18T15:34:36;4.13;;;1.30;;
27269;SDS011;14769;56.934;24.176;2023-02-18T15:35:40;2.42;;;1.13;;
27269;SDS011;14769;56.934;24.176;2023-02-18T15:36:42;2.83;;;1.02;;
27269;SDS011;14769;56.934;24.176;2023-02-18T15:37:51;2.08;;;1.00;;
27269;SDS011;14769;56.934;24.176;2023-02-18T15:38:55;3.42;;;0.93;;
27269;SDS011;14769;56.934;24.176;2023-02-18T15:39:58;4.35;;;1.20;;
27269;SDS011;14769;56.934;24.176;2023-02-18T15:40:59;2.60;;;0.85;;
27269;SDS011;14769;56.934;24.176;2023-02-18T15:42:06;4.43;;;1.38;;
27269;SDS011;14769;56.934;24.176;2023-02-18T15:43:15;3.97;;;1.15;;
27269;SDS011;14769;56.934;24.176;2023-02-18T15:44:24;2.88;;;1.20;;
27269;SDS011;14769;56.934;24.176;2023-02-18T15:45:29;2.42;;;1.23;;
27269;SDS011;14769;56.934;24.176;2023-02-18T15:46:31;2.95;;;1.52;;
27269;SDS011;14769;56.934;24.176;2023-02-18T15:47:33;3.88;;;1.40;;
27269;SDS011;14769;56.934;24.176;2023-02-18T15:48:42;3.78;;;1.40;;
27269;SDS011;14769;56.934;24.176;2023-02-18T15:49:50;4.32;;;1.35;;
27269;SDS011;14769;56.934;24.176;2023-02-18T15:50:55;4.57;;;1.45;;
27269;SDS011;14769;56.934;24.176;2023-02-18T15:52:15;4.20;;;1.50;;
27269;SDS011;14769;56.934;24.176;2023-02-18T15:53:17;2.55;;;1.30;;
27269;SDS011;14769;56.934;24.176;2023-02-18T15:54:21;3.20;;;1.10;;
27269;SDS011;14769;56.934;24.176;2023-02-18T15:56:36;3.78;;;1.38;;
27269;SDS011;14769;56.934;24.176;2023-02-18T15:57:40;3.65;;;1.98;;
27269;SDS011;14769;56.934;24.176;2023-02-18T15:58:43;3.55;;;1.70;;
27269;SDS011;14769;56.934;24.176;2023-02-18T15:59:46;2.53;;;1.40;;
27269;SDS011;14769;56.934;24.176;2023-02-18T16:00:56;6.90;;;1.88;;
27269;SDS011;14769;56.934;24.176;2023-02-18T16:02:23;3.10;;;1.40;;
27269;SDS011;14769;56.934;24.176;2023-02-18T16:04:30;3.60;;;1.80;;
27269;SDS011;14769;56.934;24.176;2023-02-18T16:05:35;4.25;;;2.03;;
27269;SDS011;14769;56.934;24.176;2023-02-18T16:06:42;3.85;;;1.48;;
27269;SDS011;14769;56.934;24.176;2023-02-18T16:07:56;3.45;;;0.93;;
27269;SDS011;14769;56.934;24.176;2023-02-18T16:10:40;1.70;;;0.90;;
27269;SDS011;14769;56.934;24.176;2023-02-18T16:11:49;2.40;;;0.90;;
27269;SDS011;14769;56.934;24.176;2023-02-18T16:13:03;2.08;;;1.00;;
27269;SDS011;14769;56.934;24.176;2023-02-18T16:14:06;1.70;;;1.08;;
27269;SDS011;14769;56.934;24.176;2023-02-18T16:15:25;1.70;;;1.23;;
27269;SDS011;14769;56.934;24.176;2023-02-18T16:16:32;3.20;;;1.27;;
27269;SDS011;14769;56.934;24.176;2023-02-18T16:17:35;3.05;;;1.35;;
27269;SDS011;14769;56.934;24.176;2023-02-18T16:18:38;3.15;;;1.38;;
27269;SDS011;14769;56.934;24.176;2023-02-18T16:19:52;2.95;;;1.17;;
27269;SDS011;14769;56.934;24.176;2023-02-18T16:22:31;2.05;;;1.55;;
27269;SDS011;14769;56.934;24.176;2023-02-18T16:23:41;3.30;;;1.40;;
27269;SDS011;14769;56.934;24.176;2023-02-18T16:24:44;2.97;;;1.80;;
27269;SDS011;14769;56.934;24.176;2023-02-18T16:25:52;7.13;;;1.67;;
27269;SDS011;14769;56.934;24.176;2023-02-18T16:26:56;2.50;;;1.40;;
27269;SDS011;14769;56.934;24.176;2023-02-18T16:29:09;6.45;;;1.65;;
27269;SDS011;14769;56.934;24.176;2023-02-18T16:30:35;1.58;;;1.20;;
27269;SDS011;14769;56.934;24.176;2023-02-18T16:31:37;2.22;;;1.35;;
27269;SDS011;14769;56.934;24.176;2023-02-18T16:32:39;3.05;;;1.45;;
27269;SDS011;14769;56.934;24.176;2023-02-18T16:33:41;3.08;;;1.15;;
27269;SDS011;14769;56.934;24.176;2023-02-18T16:34:43;2.63;;;1.10;;
27269;SDS011;14769;56.934;24.176;2023-02-18T16:35:48;2.90;;;1.30;;
27269;SDS011;14769;56.934;24.176;2023-02-18T16:36:51;4.55;;;1.30;;
27269;SDS011;14769;56.934;24.176;2023-02-18T16:38:15;1.87;;;1.30;;
27269;SDS011;14769;56.934;24.176;2023-02-18T16:39:23;2.38;;;1.50;;
27269;SDS011;14769;56.934;24.176;2023-02-18T16:40:35;2.20;;;1.48;;
27269;SDS011;14769;56.934;24.176;2023-02-18T16:41:39;2.55;;;1.10;;
27269;SDS011;14769;56.934;24.176;2023-02-18T16:42:41;2.83;;;1.38;;
27269;SDS011;14769;56.934;24.176;2023-02-18T16:43:43;3.55;;;2.20;;
27269;SDS011;14769;56.934;24.176;2023-02-18T16:44:45;2.97;;;1.50;;
27269;SDS011;14769;56.934;24.176;2023-02-18T16:45:52;4.22;;;2.20;;
27269;SDS011;14769;56.934;24.176;2023-02-18T16:46:57;6.10;;;2.55;;
27269;SDS011;14769;56.934;24.176;2023-02-18T16:47:59;6.15;;;2.10;;
27269;SDS011;14769;56.934;24.176;2023-02-18T16:49:02;6.15;;;2.38;;
27269;SDS011;14769;56.934;24.176;2023-02-18T16:50:04;3.97;;;1.95;;
27269;SDS011;14769;56.934;24.176;2023-02-18T16:52:23;5.88;;;2.17;;
27269;SDS011;14769;56.934;24.176;2023-02-18T16:53:24;11.40;;;3.65;;
27269;SDS011;14769;56.934;24.176;2023-02-18T16:54:26;4.57;;;2.05;;
27269;SDS011;14769;56.934;24.176;2023-02-18T16:55:29;7.13;;;3.28;;
27269;SDS011;14769;56.934;24.176;2023-02-18T16:56:32;4.03;;;2.03;;
27269;SDS011;14769;56.934;24.176;2023-02-18T16:57:35;3.47;;;1.10;;
27269;SDS011;14769;56.934;24.176;2023-02-18T16:58:37;10.10;;;4.00;;
27269;SDS011;14769;56.934;24.176;2023-02-18T16:59:39;7.95;;;2.85;;
27269;SDS011;14769;56.934;24.176;2023-02-18T17:00:42;6.43;;;2.83;;
27269;SDS011;14769;56.934;24.176;2023-02-18T17:01:44;6.90;;;2.78;;
27269;SDS011;14769;56.934;24.176;2023-02-18T17:02:50;3.88;;;2.00;;
27269;SDS011;14769;56.934;24.176;2023-02-18T17:03:57;2.90;;;2.08;;
27269;SDS011;14769;56.934;24.176;2023-02-18T17:05:00;2.03;;;1.80;;
27269;SDS011;14769;56.934;24.176;2023-02-18T17:06:02;1.83;;;1.30;;
27269;SDS011;14769;56.934;24.176;2023-02-18T17:07:07;2.28;;;1.00;;
27269;SDS011;14769;56.934;24.176;2023-02-18T17:09:20;2.17;;;0.80;;
27269;SDS011;14769;56.934;24.176;2023-02-18T17:10:23;1.75;;;0.55;;
27269;SDS011;14769;56.934;24.176;2023-02-18T17:11:27;1.83;;;0.93;;
27269;SDS011;14769;56.934;24.176;2023-02-18T17:12:31;3.13;;;1.10;;
27269;SDS011;14769;56.934;24.176;2023-02-18T17:13:33;1.20;;;0.80;;
27269;SDS011;14769;56.934;24.176;2023-02-18T17:14:35;3.50;;;0.80;;
27269;SDS011;14769;56.934;24.176;2023-02-18T17:15:37;2.25;;;0.90;;
27269;SDS011;14769;56.934;24.176;2023-02-18T17:16:39;2.35;;;0.90;;
27269;SDS011;14769;56.934;24.176;2023-02-18T17:17:41;2.60;;;0.95;;
27269;SDS011;14769;56.934;24.176;2023-02-18T17:18:44;0.75;;;0.63;;
27269;SDS011;14769;56.934;24.176;2023-02-18T17:19:46;0.98;;;0.52;;
27269;SDS011;14769;56.934;24.176;2023-02-18T17:20:49;0.98;;;0.63;;
27269;SDS011;14769;56.934;24.176;2023-02-18T17:21:52;3.00;;;0.63;;
27269;SDS011;14769;56.934;24.176;2023-02-18T17:22:54;3.08;;;0.98;;
27269;SDS011;14769;56.934;24.176;2023-02-18T17:23:59;2.33;;;0.60;;
27269;SDS011;14769;56.934;24.176;2023-02-18T17:25:04;3.17;;;0.80;;
27269;SDS011;14769;56.934;24.176;2023-02-18T17:26:20;2.22;;;0.70;;
27269;SDS011;14769;56.934;24.176;2023-02-18T17:27:27;2.33;;;1.40;;
27269;SDS011;14769;56.934;24.176;2023-02-18T17:28:29;2.40;;;0.80;;
27269;SDS011;14769;56.934;24.176;2023-02-18T17:29:31;2.20;;;0.98;;
27269;SDS011;14769;56.934;24.176;2023-02-18T17:30:36;1.90;;;0.80;;
27269;SDS011;14769;56.934;24.176;2023-02-18T17:31:40;2.38;;;0.77;;
27269;SDS011;14769;56.934;24.176;2023-02-18T17:32:45;2.50;;;1.10;;
27269;SDS011;14769;56.934;24.176;2023-02-18T17:33:48;4.07;;;1.20;;
27269;SDS011;14769;56.934;24.176;2023-02-18T17:34:50;1.85;;;0.90;;
27269;SDS011;14769;56.934;24.176;2023-02-18T17:35:52;2.22;;;0.77;;
27269;SDS011;14769;56.934;24.176;2023-02-18T17:36:56;2.85;;;0.73;;
27269;SDS011;14769;56.934;24.176;2023-02-18T17:37:58;3.42;;;0.90;;
27269;SDS011;14769;56.934;24.176;2023-02-18T17:39:00;3.53;;;0.70;;
27269;SDS011;14769;56.934;24.176;2023-02-18T17:40:03;1.77;;;0.63;;
27269;SDS011;14769;56.934;24.176;2023-02-18T17:41:06;2.80;;;0.98;;
27269;SDS011;14769;56.934;24.176;2023-02-18T17:42:09;1.65;;;0.45;;
27269;SDS011;14769;56.934;24.176;2023-02-18T17:43:15;3.35;;;0.65;;
27269;SDS011;14769;56.934;24.176;2023-02-18T17:44:19;2.00;;;0.70;;
27269;SDS011;14769;56.934;24.176;2023-02-18T17:45:34;1.50;;;0.60;;
27269;SDS011;14769;56.934;24.176;2023-02-18T17:46:46;1.02;;;0.60;;
27269;SDS011;14769;56.934;24.176;2023-02-18T17:47:50;1.00;;;0.60;;
27269;SDS011;14769;56.934;24.176;2023-02-18T17:48:52;0.93;;;0.60;;
27269;SDS011;14769;56.934;24.176;2023-02-18T17:49:55;3.05;;;0.82;;
27269;SDS011;14769;56.934;24.176;2023-02-18T17:50:57;2.08;;;0.90;;
27269;SDS011;14769;56.934;24.176;2023-02-18T17:52:00;1.15;;;0.50;;
27269;SDS011;14769;56.934;24.176;2023-02-18T17:53:02;3.47;;;1.00;;
27269;SDS011;14769;56.934;24.176;2023-02-18T17:54:12;3.33;;;1.00;;
27269;SDS011;14769;56.934;24.176;2023-02-18T17:55:22;2.25;;;0.77;;
27269;SDS011;14769;56.934;24.176;2023-02-18T17:56:26;2.58;;;1.08;;
27269;SDS011;14769;56.934;24.176;2023-02-18T17:57:28;2.88;;;0.98;;
27269;SDS011;14769;56.934;24.176;2023-02-18T17:58:32;1.48;;;0.82;;
27269;SDS011;14769;56.934;24.176;2023-02-18T17:59:34;1.83;;;0.98;;
27269;SDS011;14769;56.934;24.176;2023-02-18T18:00:37;4.72;;;1.17;;
27269;SDS011;14769;56.934;24.176;2023-02-18T18:01:41;2.53;;;1.10;;
27269;SDS011;14769;56.934;24.176;2023-02-18T18:02:44;3.03;;;1.38;;
27269;SDS011;14769;56.934;24.176;2023-02-18T18:03:46;3.40;;;1.45;;
27269;SDS011;14769;56.934;24.176;2023-02-18T18:04:49;3.55;;;1.05;;
27269;SDS011;14769;56.934;24.176;2023-02-18T18:05:51;2.22;;;1.13;;
27269;SDS011;14769;56.934;24.176;2023-02-18T18:06:54;1.95;;;0.77;;
27269;SDS011;14769;56.934;24.176;2023-02-18T18:07:57;3.50;;;1.55;;
27269;SDS011;14769;56.934;24.176;2023-02-18T18:08:59;3.60;;;1.35;;
27269;SDS011;14769;56.934;24.176;2023-02-18T18:10:02;2.63;;;1.20;;
27269;SDS011;14769;56.934;24.176;2023-02-18T18:11:04;2.03;;;0.90;;
27269;SDS011;14769;56.934;24.176;2023-02-18T18:12:07;2.58;;;0.90;;
27269;SDS011;14769;56.934;24.176;2023-02-18T18:13:17;3.03;;;0.80;;
27269;SDS011;14769;56.934;24.176;2023-02-18T18:14:24;3.67;;;0.70;;
27269;SDS011;14769;56.934;24.176;2023-02-18T18:16:32;1.73;;;0.77;;
27269;SDS011;14769;56.934;24.176;2023-02-18T18:17:34;3.45;;;1.00;;
27269;SDS011;14769;56.934;24.176;2023-02-18T18:18:36;6.43;;;0.98;;
27269;SDS011;14769;56.934;24.176;2023-02-18T18:19:38;2.03;;;0.60;;
27269;SDS011;14769;56.934;24.176;2023-02-18T18:20:45;2.40;;;0.98;;
27269;SDS011;14769;56.934;24.176;2023-02-18T18:21:51;6.95;;;0.90;;
27269;SDS011;14769;56.934;24.176;2023-02-18T18:22:54;1.77;;;0.60;;
27269;SDS011;14769;56.934;24.176;2023-02-18T18:23:58;1.58;;;0.50;;
27269;SDS011;14769;56.934;24.176;2023-02-18T18:25:00;3.95;;;0.80;;
27269;SDS011;14769;56.934;24.176;2023-02-18T18:26:05;4.35;;;0.90;;
27269;SDS011;14769;56.934;24.176;2023-02-18T18:27:07;2.08;;;0.60;;
27269;SDS011;14769;56.934;24.176;2023-02-18T18:28:10;4.15;;;0.68;;
27269;SDS011;14769;56.934;24.176;2023-02-18T18:29:13;2.45;;;0.50;;
27269;SDS011;14769;56.934;24.176;2023-02-18T18:30:15;2.58;;;1.02;;
27269;SDS011;14769;56.934;24.176;2023-02-18T18:31:17;0.93;;;0.60;;
27269;SDS011;14769;56.934;24.176;2023-02-18T18:32:20;2.85;;;0.70;;
27269;SDS011;14769;56.934;24.176;2023-02-18T18:33:25;2.83;;;1.13;;
27269;SDS011;14769;56.934;24.176;2023-02-18T18:34:28;3.50;;;0.75;;
27269;SDS011;14769;56.934;24.176;2023-02-18T18:35:32;2.17;;;0.82;;
27269;SDS011;14769;56.934;24.176;2023-02-18T18:36:38;4.13;;;0.80;;
27269;SDS011;14769;56.934;24.176;2023-02-18T18:37:39;1.23;;;0.68;;
27269;SDS011;14769;56.934;24.176;2023-02-18T18:38:47;3.20;;;0.60;;
27269;SDS011;14769;56.934;24.176;2023-02-18T18:39:49;3.03;;;0.80;;
27269;SDS011;14769;56.934;24.176;2023-02-18T18:40:51;1.73;;;0.95;;
27269;SDS011;14769;56.934;24.176;2023-02-18T18:41:54;3.50;;;0.70;;
27269;SDS011;14769;56.934;24.176;2023-02-18T18:42:56;3.70;;;0.80;;
27269;SDS011;14769;56.934;24.176;2023-02-18T18:44:00;4.43;;;1.00;;
27269;SDS011;14769;56.934;24.176;2023-02-18T18:45:04;5.00;;;1.35;;
27269;SDS011;14769;56.934;24.176;2023-02-18T18:46:07;6.25;;;0.90;;
27269;SDS011;14769;56.934;24.176;2023-02-18T18:47:09;3.10;;;0.85;;
27269;SDS011;14769;56.934;24.176;2023-02-18T18:48:11;4.28;;;0.85;;
27269;SDS011;14769;56.934;24.176;2023-02-18T18:49:12;4.00;;;1.00;;
27269;SDS011;14769;56.934;24.176;2023-02-18T18:50:15;5.13;;;0.60;;
27269;SDS011;14769;56.934;24.176;2023-02-18T18:51:20;3.15;;;1.45;;
27269;SDS011;14769;56.934;24.176;2023-02-18T18:52:27;4.00;;;0.98;;
27269;SDS011;14769;56.934;24.176;2023-02-18T18:53:31;2.25;;;0.63;;
27269;SDS011;14769;56.934;24.176;2023-02-18T18:54:35;3.13;;;1.40;;
27269;SDS011;14769;56.934;24.176;2023-02-18T18:55:38;1.70;;;0.55;;
27269;SDS011;14769;56.934;24.176;2023-02-18T18:56:41;2.92;;;0.65;;
27269;SDS011;14769;56.934;24.176;2023-02-18T18:57:43;2.28;;;0.60;;
27269;SDS011;14769;56.934;24.176;2023-02-18T18:58:47;3.80;;;0.60;;
27269;SDS011;14769;56.934;24.176;2023-02-18T18:59:50;3.40;;;0.40;;
27269;SDS011;14769;56.934;24.176;2023-02-18T19:00:53;3.92;;;0.82;;
27269;SDS011;14769;56.934;24.176;2023-02-18T19:01:56;3.38;;;0.60;;
27269;SDS011;14769;56.934;24.176;2023-02-18T19:02:58;1.75;;;0.60;;
27269;SDS011;14769;56.934;24.176;2023-02-18T19:04:02;4.53;;;0.65;;
27269;SDS011;14769;56.934;24.176;2023-02-18T19:05:04;2.22;;;0.88;;
27269;SDS011;14769;56.934;24.176;2023-02-18T19:06:08;4.15;;;1.20;;
27269;SDS011;14769;56.934;24.176;2023-02-18T19:07:11;3.25;;;0.60;;
27269;SDS011;14769;56.934;24.176;2023-02-18T19:08:13;1.60;;;0.73;;
27269;SDS011;14769;56.934;24.176;2023-02-18T19:09:20;2.22;;;0.68;;
27269;SDS011;14769;56.934;24.176;2023-02-18T19:10:26;1.92;;;0.63;;
27269;SDS011;14769;56.934;24.176;2023-02-18T19:11:30;3.45;;;0.60;;
27269;SDS011;14769;56.934;24.176;2023-02-18T19:12:32;4.50;;;0.75;;
27269;SDS011;14769;56.934;24.176;2023-02-18T19:13:34;1.33;;;0.57;;
27269;SDS011;14769;56.934;24.176;2023-02-18T19:14:37;5.35;;;0.80;;
27269;SDS011;14769;56.934;24.176;2023-02-18T19:15:39;2.03;;;0.90;;
27269;SDS011;14769;56.934;24.176;2023-02-18T19:16:41;2.22;;;0.82;;
27269;SDS011;14769;56.934;24.176;2023-02-18T19:17:44;2.05;;;0.50;;
27269;SDS011;14769;56.934;24.176;2023-02-18T19:18:48;4.63;;;0.80;;
27269;SDS011;14769;56.934;24.176;2023-02-18T19:19:50;2.03;;;0.70;;
27269;SDS011;14769;56.934;24.176;2023-02-18T19:20:52;1.38;;;0.80;;
27269;SDS011;14769;56.934;24.176;2023-02-18T19:21:58;2.67;;;0.85;;
27269;SDS011;14769;56.934;24.176;2023-02-18T19:23:06;1.35;;;0.57;;
27269;SDS011;14769;56.934;24.176;2023-02-18T19:24:25;3.58;;;0.60;;
27269;SDS011;14769;56.934;24.176;2023-02-18T19:25:34;1.33;;;0.50;;
27269;SDS011;14769;56.934;24.176;2023-02-18T19:26:36;1.27;;;0.50;;
27269;SDS011;14769;56.934;24.176;2023-02-18T19:27:39;1.35;;;0.50;;
27269;SDS011;14769;56.934;24.176;2023-02-18T19:28:45;2.78;;;0.70;;
27269;SDS011;14769;56.934;24.176;2023-02-18T19:29:48;2.70;;;0.68;;
27269;SDS011;14769;56.934;24.176;2023-02-18T19:31:42;3.50;;;0.70;;
27269;SDS011;14769;56.934;24.176;2023-02-18T19:33:07;1.42;;;0.70;;
27269;SDS011;14769;56.934;24.176;2023-02-18T19:34:15;1.10;;;0.50;;
27269;SDS011;14769;56.934;24.176;2023-02-18T19:35:45;1.77;;;0.55;;
27269;SDS011;14769;56.934;24.176;2023-02-18T19:36:57;1.77;;;0.50;;
27269;SDS011;14769;56.934;24.176;2023-02-18T19:38:39;2.40;;;0.55;;
27269;SDS011;14769;56.934;24.176;2023-02-18T19:40:39;1.48;;;0.52;;
27269;SDS011;14769;56.934;24.176;2023-02-18T19:41:51;1.52;;;0.52;;
27269;SDS011;14769;56.934;24.176;2023-02-18T19:43:17;1.40;;;0.35;;
27269;SDS011;14769;56.934;24.176;2023-02-18T19:44:19;4.78;;;0.60;;
27269;SDS011;14769;56.934;24.176;2023-02-18T19:45:21;3.03;;;0.50;;
27269;SDS011;14769;56.934;24.176;2023-02-18T19:46:27;1.77;;;0.60;;
27269;SDS011;14769;56.934;24.176;2023-02-18T19:47:30;2.67;;;0.70;;
27269;SDS011;14769;56.934;24.176;2023-02-18T19:48:33;2.42;;;0.57;;
27269;SDS011;14769;56.934;24.176;2023-02-18T19:49:38;2.25;;;0.50;;
27269;SDS011;14769;56.934;24.176;2023-02-18T19:51:04;1.48;;;0.50;;
27269;SDS011;14769;56.934;24.176;2023-02-18T19:52:25;2.95;;;0.68;;
27269;SDS011;14769;56.934;24.176;2023-02-18T19:54:00;2.08;;;0.47;;
27269;SDS011;14769;56.934;24.176;2023-02-18T19:55:31;2.38;;;0.60;;
27269;SDS011;14769;56.934;24.176;2023-02-18T19:56:38;2.50;;;0.40;;
27269;SDS011;14769;56.934;24.176;2023-02-18T19:57:40;2.90;;;0.50;;
27269;SDS011;14769;56.934;24.176;2023-02-18T19:59:24;2.08;;;0.60;;
27269;SDS011;14769;56.934;24.176;2023-02-18T20:05:55;1.80;;;0.63;;
27269;SDS011;14769;56.934;24.176;2023-02-18T20:07:44;2.35;;;0.35;;
27269;SDS011;14769;56.934;24.176;2023-02-18T20:09:24;3.10;;;0.52;;
27269;SDS011;14769;56.934;24.176;2023-02-18T20:10:33;3.42;;;0.80;;
27269;SDS011;14769;56.934;24.176;2023-02-18T20:11:41;2.22;;;0.75;;
27269;SDS011;14769;56.934;24.176;2023-02-18T20:12:43;4.30;;;0.80;;
27269;SDS011;14769;56.934;24.176;2023-02-18T20:13:46;1.05;;;0.50;;
27269;SDS011;14769;56.934;24.176;2023-02-18T20:14:49;2.10;;;0.60;;
27269;SDS011;14769;56.934;24.176;2023-02-18T20:15:57;2.15;;;0.45;;
27269;SDS011;14769;56.934;24.176;2023-02-18T20:17:04;5.00;;;0.73;;
27269;SDS011;14769;56.934;24.176;2023-02-18T20:18:11;3.63;;;0.60;;